KRGA

Central Kentucky Regional Airport

Richmond, Kentucky, USA
METAR KRGA 161855Z AUTO 00000KT 10SM OVC014 02/00 A3025 RMK AO2
Observed Flight Rules
Jan-16 @ 18:55 UTC (8 minutes ago) Marginal Visual Flight Rules
Visibility Clouds
10 miles
  • Overcast at 1,400' AGL
Temperatures Readings
Current 2°C / 36°F
Dewpoint 0°C / 32°F
Humidity 87%
Altimeter 30.25" Hg
Pressure 1024.42 hPa
Elevation 305
METAR KRGA 161855Z AUTO 00000KT 10SM OVC014 02/00 A3025 RMK AO2
Observed Flight Rules
Jan-16 @ 18:55 UTC
(8 minutes ago)
MVFR
Clouds
  • Overcast at 1,400' AGL
Temperature Dewpoint
2°C / 36°F 0°C / 32°F
Humidity Altimeter Pressure
87% 30.25" Hg 1024.42 hPa